首页
METAR-TAF:

METAR-TAF

机场 :

馬塔烏圖機場

瓦利斯, 法国

纬度: 13-14S, 经度: 176-10W, 海拔: 23米

当前天气观测

该预报发布于1小时和16分钟前的00:30 UTC
风速10节,风向
温度 31°C
湿度 79%
气压 1009 hPa
能见度10公里或以上
少量云层高于1800英尺
散云层高于26000英尺

METAR: NLWW 200030Z 08010KT 9999 FEW018 SCT260 31/27 Q1009 NOSIG

时间: 13:46 (01:46 UTC)

预报

该预报发布于2小时和46分钟前的23:00 UTC
预报有效从20日的 00点(UTC)到 20日的 24点(UTC)
风速10节,风向
能见度10公里或以上
少量云层高于1800英尺
散云层高于5000英尺
几率 30% :
短暂存在
从 20日的 15点(UTC)到 20日的 24点(UTC)
能見度: 4000
多云层高于1200英尺
少量云层高于1800英尺, 积雨云.
阵雨,

TAF: NLWW 192300Z 2000/2024 09010KT 9999 FEW018 SCT050 PROB30 TEMPO 2015/2024 4000 SHRA BKN012 FEW018CB

超过4000个机场的气象观测和天气预报(METAR&TAF报告)。

可查询的气象台以黄色和红色小点在地图上表示。

将鼠标移到小点上方,可查看气象台名称。

然后点击查看天气观测和预报。

如需切换地图:点击带黑十字的绿色按钮放大地图;点击带横线的绿色按钮缩小地图;或者点击绿色箭头查看邻近地区的地图。


METAR-TAF: